sensor_id;sensor_type;location;lat;lon;timestamp;pressure;altitude;pressure_sealevel;temperature;humidity
19890;BME280;10107;51.198;6.824;2023-01-30T00:00:51;-21384.66;;;2.42;100.00
19890;BME280;10107;51.198;6.824;2023-01-30T00:04:55;-21385.03;;;2.44;100.00
19890;BME280;10107;51.198;6.824;2023-01-30T00:08:56;-21386.53;;;2.49;100.00
19890;BME280;10107;51.198;6.824;2023-01-30T00:12:58;-21386.53;;;2.49;100.00
19890;BME280;10107;51.198;6.824;2023-01-30T00:17:00;-21387.19;;;2.52;100.00
19890;BME280;10107;51.198;6.824;2023-01-30T00:21:05;-21387.72;;;2.54;100.00
19890;BME280;10107;51.198;6.824;2023-01-30T00:25:07;-21389.47;;;2.61;100.00
19890;BME280;10107;51.198;6.824;2023-01-30T00:29:09;-21389.88;;;2.62;100.00
19890;BME280;10107;51.198;6.824;2023-01-30T00:33:11;-21389.88;;;2.62;100.00
19890;BME280;10107;51.198;6.824;2023-01-30T00:37:14;-21390.28;;;2.64;100.00
19890;BME280;10107;51.198;6.824;2023-01-30T00:41:16;-21390.81;;;2.66;100.00
19890;BME280;10107;51.198;6.824;2023-01-30T00:45:18;-21392.00;;;2.70;100.00
19890;BME280;10107;51.198;6.824;2023-01-30T00:49:37;-21392.81;;;2.73;100.00
19890;BME280;10107;51.198;6.824;2023-01-30T00:53:41;-21393.63;;;2.76;100.00
19890;BME280;10107;51.198;6.824;2023-01-30T00:57:43;-21394.16;;;2.78;100.00
19890;BME280;10107;51.198;6.824;2023-01-30T01:01:45;-21395.22;;;2.83;100.00
19890;BME280;10107;51.198;6.824;2023-01-30T01:05:47;-21396.44;;;2.87;100.00
19890;BME280;10107;51.198;6.824;2023-01-30T01:09:50;-21396.69;;;2.88;100.00
19890;BME280;10107;51.198;6.824;2023-01-30T01:13:53;-21396.69;;;2.88;100.00
19890;BME280;10107;51.198;6.824;2023-01-30T01:17:55;-21397.38;;;2.91;100.00
19890;BME280;10107;51.198;6.824;2023-01-30T01:21:56;-21397.50;;;2.91;100.00
19890;BME280;10107;51.198;6.824;2023-01-30T01:26:01;-21399.13;;;2.97;100.00
19890;BME280;10107;51.198;6.824;2023-01-30T01:30:03;-21399.38;;;2.98;100.00
19890;BME280;10107;51.198;6.824;2023-01-30T01:34:05;-21400.59;;;3.03;100.00
19890;BME280;10107;51.198;6.824;2023-01-30T01:38:07;-21401.41;;;3.06;100.00
19890;BME280;10107;51.198;6.824;2023-01-30T01:42:10;-21402.06;;;3.09;100.00
19890;BME280;10107;51.198;6.824;2023-01-30T01:46:18;-21404.06;;;3.16;100.00
19890;BME280;10107;51.198;6.824;2023-01-30T01:50:24;-21404.75;;;3.19;100.00
19890;BME280;10107;51.198;6.824;2023-01-30T01:54:31;-21405.13;;;3.21;100.00
19890;BME280;10107;51.198;6.824;2023-01-30T01:58:39;-21405.81;;;3.23;100.00
19890;BME280;10107;51.198;6.824;2023-01-30T02:02:44;-21406.34;;;3.25;100.00
19890;BME280;10107;51.198;6.824;2023-01-30T02:06:46;-21406.63;;;3.26;100.00
19890;BME280;10107;51.198;6.824;2023-01-30T02:10:52;-21407.03;;;3.28;100.00
19890;BME280;10107;51.198;6.824;2023-01-30T02:14:59;-21407.81;;;3.31;100.00
19890;BME280;10107;51.198;6.824;2023-01-30T02:19:01;-21407.69;;;3.30;100.00
19890;BME280;10107;51.198;6.824;2023-01-30T02:23:26;-21407.97;;;3.31;100.00
19890;BME280;10107;51.198;6.824;2023-01-30T02:27:49;-21408.50;;;3.33;100.00
19890;BME280;10107;51.198;6.824;2023-01-30T02:32:00;-21408.22;;;3.32;100.00
19890;BME280;10107;51.198;6.824;2023-01-30T02:36:13;-21408.91;;;3.35;100.00
19890;BME280;10107;51.198;6.824;2023-01-30T02:40:29;-21409.28;;;3.36;100.00
19890;BME280;10107;51.198;6.824;2023-01-30T02:44:39;-21409.28;;;3.36;100.00
19890;BME280;10107;51.198;6.824;2023-01-30T02:48:49;-21410.22;;;3.40;100.00
19890;BME280;10107;51.198;6.824;2023-01-30T02:52:54;-21410.75;;;3.42;100.00
19890;BME280;10107;51.198;6.824;2023-01-30T02:56:57;-21411.03;;;3.43;100.00
19890;BME280;10107;51.198;6.824;2023-01-30T03:01:06;-21411.69;;;3.46;100.00
19890;BME280;10107;51.198;6.824;2023-01-30T03:05:21;-21411.97;;;3.47;100.00
19890;BME280;10107;51.198;6.824;2023-01-30T03:09:36;-21413.59;;;3.53;100.00
19890;BME280;10107;51.198;6.824;2023-01-30T03:13:47;-21413.97;;;3.54;100.00
19890;BME280;10107;51.198;6.824;2023-01-30T03:17:51;-21415.06;;;3.59;100.00
19890;BME280;10107;51.198;6.824;2023-01-30T03:21:57;-21416.38;;;3.64;100.00
19890;BME280;10107;51.198;6.824;2023-01-30T03:26:02;-21416.25;;;3.63;100.00
19890;BME280;10107;51.198;6.824;2023-01-30T03:30:06;-21415.31;;;3.60;100.00
19890;BME280;10107;51.198;6.824;2023-01-30T03:34:08;-21416.53;;;3.64;100.00
19890;BME280;10107;51.198;6.824;2023-01-30T03:38:12;-21417.59;;;3.68;100.00
19890;BME280;10107;51.198;6.824;2023-01-30T03:42:14;-21418.41;;;3.71;100.00
19890;BME280;10107;51.198;6.824;2023-01-30T03:46:16;-21418.66;;;3.72;100.00
19890;BME280;10107;51.198;6.824;2023-01-30T03:50:18;-21418.81;;;3.73;100.00
19890;BME280;10107;51.198;6.824;2023-01-30T03:54:22;-21418.94;;;3.73;100.00
19890;BME280;10107;51.198;6.824;2023-01-30T03:58:23;-21418.41;;;3.71;100.00
19890;BME280;10107;51.198;6.824;2023-01-30T04:02:27;-21418.53;;;3.72;100.00
19890;BME280;10107;51.198;6.824;2023-01-30T04:06:32;-21418.81;;;3.73;100.00
19890;BME280;10107;51.198;6.824;2023-01-30T04:10:35;-21418.53;;;3.72;100.00
19890;BME280;10107;51.198;6.824;2023-01-30T04:14:37;-21417.84;;;3.69;100.00
19890;BME280;10107;51.198;6.824;2023-01-30T04:19:00;-21418.25;;;3.71;100.00
19890;BME280;10107;51.198;6.824;2023-01-30T04:23:05;-21419.06;;;3.74;100.00
19890;BME280;10107;51.198;6.824;2023-01-30T04:27:08;-21419.06;;;3.74;100.00
19890;BME280;10107;51.198;6.824;2023-01-30T04:31:16;-21421.75;;;3.84;100.00
19890;BME280;10107;51.198;6.824;2023-01-30T04:35:26;-21422.16;;;3.86;100.00
19890;BME280;10107;51.198;6.824;2023-01-30T04:39:28;-21422.28;;;3.86;100.00
19890;BME280;10107;51.198;6.824;2023-01-30T04:43:31;-21422.53;;;3.87;100.00
19890;BME280;10107;51.198;6.824;2023-01-30T04:47:42;-21422.69;;;3.88;100.00
19890;BME280;10107;51.198;6.824;2023-01-30T04:51:44;-21423.22;;;3.90;100.00
19890;BME280;10107;51.198;6.824;2023-01-30T04:55:46;-21423.47;;;3.91;100.00
19890;BME280;10107;51.198;6.824;2023-01-30T04:59:50;-21424.16;;;3.93;100.00
19890;BME280;10107;51.198;6.824;2023-01-30T05:03:53;-21423.34;;;3.90;100.00
19890;BME280;10107;51.198;6.824;2023-01-30T05:07:55;-21423.75;;;3.92;100.00
19890;BME280;10107;51.198;6.824;2023-01-30T05:11:56;-21423.88;;;3.92;100.00
19890;BME280;10107;51.198;6.824;2023-01-30T05:15:59;-21423.47;;;3.91;100.00
19890;BME280;10107;51.198;6.824;2023-01-30T05:20:02;-21424.16;;;3.93;100.00
19890;BME280;10107;51.198;6.824;2023-01-30T05:24:05;-21423.88;;;3.92;100.00
19890;BME280;10107;51.198;6.824;2023-01-30T05:28:06;-21423.75;;;3.92;100.00
19890;BME280;10107;51.198;6.824;2023-01-30T05:32:11;-21423.75;;;3.92;100.00
19890;BME280;10107;51.198;6.824;2023-01-30T05:36:15;-21424.69;;;3.95;100.00
19890;BME280;10107;51.198;6.824;2023-01-30T05:40:17;-21424.69;;;3.95;100.00
19890;BME280;10107;51.198;6.824;2023-01-30T05:44:19;-21424.81;;;3.96;100.00
19890;BME280;10107;51.198;6.824;2023-01-30T05:48:23;-21425.75;;;4.00;100.00
19890;BME280;10107;51.198;6.824;2023-01-30T05:52:25;-21427.09;;;4.05;100.00
19890;BME280;10107;51.198;6.824;2023-01-30T05:56:26;-21427.75;;;4.07;100.00
19890;BME280;10107;51.198;6.824;2023-01-30T06:00:29;-21428.16;;;4.09;100.00
19890;BME280;10107;51.198;6.824;2023-01-30T06:04:32;-21429.50;;;4.14;100.00
19890;BME280;10107;51.198;6.824;2023-01-30T06:08:34;-21430.16;;;4.16;100.00
19890;BME280;10107;51.198;6.824;2023-01-30T06:12:36;-21430.97;;;4.20;100.00
19890;BME280;10107;51.198;6.824;2023-01-30T06:16:38;-21431.63;;;4.22;100.00
19890;BME280;10107;51.198;6.824;2023-01-30T06:20:46;-21432.44;;;4.25;100.00
19890;BME280;10107;51.198;6.824;2023-01-30T06:24:48;-21432.97;;;4.27;100.00
19890;BME280;10107;51.198;6.824;2023-01-30T06:28:49;-21432.84;;;4.27;100.00
19890;BME280;10107;51.198;6.824;2023-01-30T06:32:51;-21432.84;;;4.27;100.00
19890;BME280;10107;51.198;6.824;2023-01-30T06:36:54;-21433.38;;;4.29;100.00
19890;BME280;10107;51.198;6.824;2023-01-30T06:40:56;-21433.91;;;4.31;100.00
19890;BME280;10107;51.198;6.824;2023-01-30T06:44:58;-21434.84;;;4.34;100.00
19890;BME280;10107;51.198;6.824;2023-01-30T06:48:59;-21434.72;;;4.34;100.00
19890;BME280;10107;51.198;6.824;2023-01-30T06:53:04;-21436.31;;;4.40;100.00
19890;BME280;10107;51.198;6.824;2023-01-30T06:57:07;-21436.72;;;4.42;100.00
19890;BME280;10107;51.198;6.824;2023-01-30T07:01:09;-21437.66;;;4.45;100.00
19890;BME280;10107;51.198;6.824;2023-01-30T07:05:11;-21438.31;;;4.48;100.00
19890;BME280;10107;51.198;6.824;2023-01-30T07:09:14;-21439.66;;;4.53;100.00
19890;BME280;10107;51.198;6.824;2023-01-30T07:13:15;-21440.34;;;4.55;100.00
19890;BME280;10107;51.198;6.824;2023-01-30T07:17:17;-21441.41;;;4.60;100.00
19890;BME280;10107;51.198;6.824;2023-01-30T07:21:19;-21441.53;;;4.60;100.00
19890;BME280;10107;51.198;6.824;2023-01-30T07:25:23;-21442.59;;;4.64;100.00
19890;BME280;10107;51.198;6.824;2023-01-30T07:29:25;-21444.47;;;4.71;100.00
19890;BME280;10107;51.198;6.824;2023-01-30T07:33:27;-21444.88;;;4.73;100.00
19890;BME280;10107;51.198;6.824;2023-01-30T07:37:28;-21446.34;;;4.79;100.00
19890;BME280;10107;51.198;6.824;2023-01-30T07:41:31;-21447.00;;;4.81;100.00
19890;BME280;10107;51.198;6.824;2023-01-30T07:45:36;-21447.28;;;4.82;100.00
19890;BME280;10107;51.198;6.824;2023-01-30T07:49:38;-21448.09;;;4.85;100.00
19890;BME280;10107;51.198;6.824;2023-01-30T07:53:40;-21449.16;;;4.89;100.00
19890;BME280;10107;51.198;6.824;2023-01-30T07:57:43;-21450.75;;;4.95;100.00
19890;BME280;10107;51.198;6.824;2023-01-30T08:01:45;-21452.75;;;5.03;100.00
19890;BME280;10107;51.198;6.824;2023-01-30T08:05:46;-21454.09;;;5.08;100.00
19890;BME280;10107;51.198;6.824;2023-01-30T08:09:49;-21455.28;;;5.13;100.00
19890;BME280;10107;51.198;6.824;2023-01-30T08:13:52;-21459.31;;;5.28;100.00
19890;BME280;10107;51.198;6.824;2023-01-30T08:17:55;-21477.19;;;5.97;100.00
19890;BME280;10107;51.198;6.824;2023-01-30T08:21:57;-21544.97;;;8.58;100.00
19890;BME280;10107;51.198;6.824;2023-01-30T08:26:00;-21528.88;;;7.96;100.00
19890;BME280;10107;51.198;6.824;2023-01-30T08:30:05;-21515.56;;;7.45;100.00
19890;BME280;10107;51.198;6.824;2023-01-30T08:34:07;-21509.31;;;7.21;100.00
19890;BME280;10107;51.198;6.824;2023-01-30T08:38:08;-21558.38;;;9.10;100.00
19890;BME280;10107;51.198;6.824;2023-01-30T08:42:11;-21669.25;;;13.40;89.69
19890;BME280;10107;51.198;6.824;2023-01-30T08:46:14;-21725.19;;;15.58;74.59
19890;BME280;10107;51.198;6.824;2023-01-30T08:50:16;-21701.28;;;14.64;73.17
19890;BME280;10107;51.198;6.824;2023-01-30T08:54:18;-21645.38;;;12.47;80.34
19890;BME280;10107;51.198;6.824;2023-01-30T08:58:20;-21588.88;;;10.28;94.38
19890;BME280;10107;51.198;6.824;2023-01-30T09:02:23;-21564.09;;;9.32;99.32
19890;BME280;10107;51.198;6.824;2023-01-30T09:06:25;-21555.84;;;9.00;100.00
19890;BME280;10107;51.198;6.824;2023-01-30T09:10:26;-21537.91;;;8.31;100.00
19890;BME280;10107;51.198;6.824;2023-01-30T09:14:29;-21519.69;;;7.61;100.00
19890;BME280;10107;51.198;6.824;2023-01-30T09:18:37;-21509.03;;;7.20;100.00
19890;BME280;10107;51.198;6.824;2023-01-30T09:22:38;-21507.72;;;7.14;100.00
19890;BME280;10107;51.198;6.824;2023-01-30T09:26:40;-21506.25;;;7.09;100.00
19890;BME280;10107;51.198;6.824;2023-01-30T09:30:44;-21503.19;;;6.97;100.00
19890;BME280;10107;51.198;6.824;2023-01-30T09:34:47;-21504.13;;;7.01;100.00
19890;BME280;10107;51.198;6.824;2023-01-30T09:38:49;-21551.34;;;8.83;100.00
19890;BME280;10107;51.198;6.824;2023-01-30T09:43:05;-21675.06;;;13.62;79.21
19890;BME280;10107;51.198;6.824;2023-01-30T09:47:11;-21702.06;;;14.68;67.41
19890;BME280;10107;51.198;6.824;2023-01-30T09:51:39;-21620.91;;;11.52;79.80
19890;BME280;10107;51.198;6.824;2023-01-30T09:55:43;-21589.16;;;10.29;87.07
19890;BME280;10107;51.198;6.824;2023-01-30T09:59:53;-21568.47;;;9.49;90.59
19890;BME280;10107;51.198;6.824;2023-01-30T10:04:05;-21559.69;;;9.15;92.63
19890;BME280;10107;51.198;6.824;2023-01-30T10:08:41;-21539.50;;;8.37;95.74
19890;BME280;10107;51.198;6.824;2023-01-30T10:12:53;-21525.94;;;7.85;99.27
19890;BME280;10107;51.198;6.824;2023-01-30T10:17:03;-21517.56;;;7.52;98.64
19890;BME280;10107;51.198;6.824;2023-01-30T10:21:14;-21513.03;;;7.35;100.00
19890;BME280;10107;51.198;6.824;2023-01-30T10:25:25;-21506.25;;;7.09;100.00
19890;BME280;10107;51.198;6.824;2023-01-30T10:29:32;-21504.13;;;7.01;100.00
19890;BME280;10107;51.198;6.824;2023-01-30T10:33:42;-21499.84;;;6.84;100.00
19890;BME280;10107;51.198;6.824;2023-01-30T10:37:51;-21498.78;;;6.80;100.00
19890;BME280;10107;51.198;6.824;2023-01-30T10:42:02;-21499.31;;;6.82;100.00
19890;BME280;10107;51.198;6.824;2023-01-30T10:46:20;-21497.72;;;6.76;100.00
19890;BME280;10107;51.198;6.824;2023-01-30T10:50:29;-21496.13;;;6.70;100.00
19890;BME280;10107;51.198;6.824;2023-01-30T10:54:37;-21495.19;;;6.66;100.00
19890;BME280;10107;51.198;6.824;2023-01-30T10:58:47;-21493.59;;;6.60;100.00
19890;BME280;10107;51.198;6.824;2023-01-30T11:02:59;-21492.66;;;6.57;100.00
19890;BME280;10107;51.198;6.824;2023-01-30T11:07:05;-21491.84;;;6.53;99.72
19890;BME280;10107;51.198;6.824;2023-01-30T11:11:23;-21490.41;;;6.48;99.61
19890;BME280;10107;51.198;6.824;2023-01-30T11:15:39;-21491.59;;;6.52;99.78
19890;BME280;10107;51.198;6.824;2023-01-30T11:19:41;-21492.53;;;6.56;97.73
19890;BME280;10107;51.198;6.824;2023-01-30T11:23:43;-21495.31;;;6.67;97.49
19890;BME280;10107;51.198;6.824;2023-01-30T11:27:51;-21506.25;;;7.09;97.02
19890;BME280;10107;51.198;6.824;2023-01-30T11:31:55;-21515.56;;;7.45;94.19
19890;BME280;10107;51.198;6.824;2023-01-30T11:35:58;-21517.16;;;7.51;91.82
19890;BME280;10107;51.198;6.824;2023-01-30T11:40:07;-21513.03;;;7.35;91.68
19890;BME280;10107;51.198;6.824;2023-01-30T11:44:24;-21511.03;;;7.27;92.85
19890;BME280;10107;51.198;6.824;2023-01-30T11:48:29;-21507.19;;;7.12;92.94
19890;BME280;10107;51.198;6.824;2023-01-30T11:52:35;-21503.97;;;7.00;92.48
19890;BME280;10107;51.198;6.824;2023-01-30T11:56:39;-21502.13;;;6.93;93.21
19890;BME280;10107;51.198;6.824;2023-01-30T12:00:46;-21499.59;;;6.83;92.50
19890;BME280;10107;51.198;6.824;2023-01-30T12:04:53;-21498.53;;;6.79;93.07
19890;BME280;10107;51.198;6.824;2023-01-30T12:08:55;-21497.06;;;6.73;93.26
19890;BME280;10107;51.198;6.824;2023-01-30T12:12:59;-21497.06;;;6.73;93.46
19890;BME280;10107;51.198;6.824;2023-01-30T12:17:11;-21498.38;;;6.79;93.05
19890;BME280;10107;51.198;6.824;2023-01-30T12:21:27;-21499.84;;;6.84;90.25
19890;BME280;10107;51.198;6.824;2023-01-30T12:25:37;-21503.44;;;6.98;89.47
19890;BME280;10107;51.198;6.824;2023-01-30T12:29:48;-21510.38;;;7.25;88.01
19890;BME280;10107;51.198;6.824;2023-01-30T12:33:53;-21513.69;;;7.38;85.98
19890;BME280;10107;51.198;6.824;2023-01-30T12:38:02;-21514.38;;;7.40;84.05
19890;BME280;10107;51.198;6.824;2023-01-30T12:42:29;-21520.34;;;7.63;83.78
19890;BME280;10107;51.198;6.824;2023-01-30T12:46:46;-21535.53;;;8.22;80.80
19890;BME280;10107;51.198;6.824;2023-01-30T12:51:00;-21538.56;;;8.33;79.89
19890;BME280;10107;51.198;6.824;2023-01-30T12:55:21;-21529.81;;;8.00;79.19
19890;BME280;10107;51.198;6.824;2023-01-30T12:59:32;-21531.00;;;8.04;79.52
19890;BME280;10107;51.198;6.824;2023-01-30T13:03:39;-21531.13;;;8.05;79.22
19890;BME280;10107;51.198;6.824;2023-01-30T13:07:53;-21527.94;;;7.92;79.40
19890;BME280;10107;51.198;6.824;2023-01-30T13:12:08;-21523.41;;;7.75;80.45
19890;BME280;10107;51.198;6.824;2023-01-30T13:16:18;-21522.88;;;7.73;80.32
19890;BME280;10107;51.198;6.824;2023-01-30T13:20:38;-21520.09;;;7.62;81.19
19890;BME280;10107;51.198;6.824;2023-01-30T13:24:56;-21520.50;;;7.64;82.41
19890;BME280;10107;51.198;6.824;2023-01-30T13:29:03;-21521.28;;;7.67;82.09
19890;BME280;10107;51.198;6.824;2023-01-30T13:33:10;-21519.16;;;7.59;82.51
19890;BME280;10107;51.198;6.824;2023-01-30T13:37:15;-21521.44;;;7.67;82.71
19890;BME280;10107;51.198;6.824;2023-01-30T13:41:17;-21519.81;;;7.61;81.20
19890;BME280;10107;51.198;6.824;2023-01-30T13:45:23;-21518.22;;;7.55;81.10
19890;BME280;10107;51.198;6.824;2023-01-30T13:49:30;-21517.69;;;7.53;81.51
19890;BME280;10107;51.198;6.824;2023-01-30T13:53:44;-21518.22;;;7.55;81.54
19890;BME280;10107;51.198;6.824;2023-01-30T13:57:51;-21519.44;;;7.60;80.54
19890;BME280;10107;51.198;6.824;2023-01-30T14:02:17;-21520.63;;;7.64;80.20
19890;BME280;10107;51.198;6.824;2023-01-30T14:06:35;-21521.03;;;7.66;80.30
19890;BME280;10107;51.198;6.824;2023-01-30T14:10:37;-21522.88;;;7.73;80.07
19890;BME280;10107;51.198;6.824;2023-01-30T14:14:41;-21527.28;;;7.90;79.60
19890;BME280;10107;51.198;6.824;2023-01-30T14:18:46;-21528.22;;;7.93;78.75
19890;BME280;10107;51.198;6.824;2023-01-30T14:22:50;-21528.34;;;7.94;78.92
19890;BME280;10107;51.198;6.824;2023-01-30T14:26:59;-21530.88;;;8.04;79.28
19890;BME280;10107;51.198;6.824;2023-01-30T14:31:02;-21526.06;;;7.85;79.71
19890;BME280;10107;51.198;6.824;2023-01-30T14:35:26;-21517.84;;;7.53;82.12
19890;BME280;10107;51.198;6.824;2023-01-30T14:39:38;-21511.97;;;7.31;85.30
19890;BME280;10107;51.198;6.824;2023-01-30T14:43:48;-21510.38;;;7.25;86.03
19890;BME280;10107;51.198;6.824;2023-01-30T14:48:27;-21506.25;;;7.09;86.61
19890;BME280;10107;51.198;6.824;2023-01-30T14:52:39;-21505.84;;;7.07;86.91
19890;BME280;10107;51.198;6.824;2023-01-30T14:56:44;-21506.25;;;7.09;86.23
19890;BME280;10107;51.198;6.824;2023-01-30T15:00:56;-21505.03;;;7.04;86.91
19890;BME280;10107;51.198;6.824;2023-01-30T15:05:04;-21505.03;;;7.04;86.41
19890;BME280;10107;51.198;6.824;2023-01-30T15:09:08;-21504.25;;;7.01;86.56
19890;BME280;10107;51.198;6.824;2023-01-30T15:13:22;-21504.13;;;7.01;87.21
19890;BME280;10107;51.198;6.824;2023-01-30T15:17:31;-21500.25;;;6.86;89.25
19890;BME280;10107;51.198;6.824;2023-01-30T15:21:53;-21498.25;;;6.78;90.89
19890;BME280;10107;51.198;6.824;2023-01-30T15:26:09;-21495.59;;;6.68;92.42
19890;BME280;10107;51.198;6.824;2023-01-30T15:30:18;-21493.31;;;6.59;92.98
19890;BME280;10107;51.198;6.824;2023-01-30T15:34:22;-21491.19;;;6.51;93.52
19890;BME280;10107;51.198;6.824;2023-01-30T15:38:27;-21490.53;;;6.48;94.50
19890;BME280;10107;51.198;6.824;2023-01-30T15:42:30;-21490.25;;;6.47;94.59
19890;BME280;10107;51.198;6.824;2023-01-30T15:46:39;-21489.72;;;6.45;94.38
19890;BME280;10107;51.198;6.824;2023-01-30T15:50:48;-21486.41;;;6.32;94.74
19890;BME280;10107;51.198;6.824;2023-01-30T15:54:52;-21482.66;;;6.18;95.43
19890;BME280;10107;51.198;6.824;2023-01-30T15:58:57;-21478.25;;;6.01;96.97
19890;BME280;10107;51.198;6.824;2023-01-30T16:03:01;-21476.00;;;5.92;97.70
19890;BME280;10107;51.198;6.824;2023-01-30T16:07:14;-21474.00;;;5.85;98.93
19890;BME280;10107;51.198;6.824;2023-01-30T16:11:31;-21474.66;;;5.87;99.27
19890;BME280;10107;51.198;6.824;2023-01-30T16:15:38;-21474.53;;;5.87;99.19
19890;BME280;10107;51.198;6.824;2023-01-30T16:19:42;-21473.59;;;5.83;100.00
19890;BME280;10107;51.198;6.824;2023-01-30T16:23:52;-21474.53;;;5.87;99.96
19890;BME280;10107;51.198;6.824;2023-01-30T16:27:55;-21473.59;;;5.83;100.00
19890;BME280;10107;51.198;6.824;2023-01-30T16:31:59;-21473.72;;;5.84;99.71
19890;BME280;10107;51.198;6.824;2023-01-30T16:36:01;-21473.19;;;5.82;99.79
19890;BME280;10107;51.198;6.824;2023-01-30T16:40:12;-21472.66;;;5.80;100.00
19890;BME280;10107;51.198;6.824;2023-01-30T16:44:17;-21472.66;;;5.80;99.88
19890;BME280;10107;51.198;6.824;2023-01-30T16:48:29;-21472.91;;;5.81;100.00
19890;BME280;10107;51.198;6.824;2023-01-30T16:52:34;-21471.59;;;5.75;99.72
19890;BME280;10107;51.198;6.824;2023-01-30T16:56:45;-21471.19;;;5.74;99.90
19890;BME280;10107;51.198;6.824;2023-01-30T17:00:49;-21471.72;;;5.76;99.90
19890;BME280;10107;51.198;6.824;2023-01-30T17:04:53;-21470.66;;;5.72;100.00
19890;BME280;10107;51.198;6.824;2023-01-30T17:08:55;-21468.66;;;5.64;100.00
19890;BME280;10107;51.198;6.824;2023-01-30T17:12:58;-21468.25;;;5.63;100.00
19890;BME280;10107;51.198;6.824;2023-01-30T17:17:01;-21467.84;;;5.61;100.00
19890;BME280;10107;51.198;6.824;2023-01-30T17:21:04;-21466.50;;;5.56;100.00
19890;BME280;10107;51.198;6.824;2023-01-30T17:25:13;-21465.97;;;5.54;100.00
19890;BME280;10107;51.198;6.824;2023-01-30T17:29:18;-21463.97;;;5.46;100.00
19890;BME280;10107;51.198;6.824;2023-01-30T17:33:20;-21463.56;;;5.45;100.00
19890;BME280;10107;51.198;6.824;2023-01-30T17:37:23;-21464.38;;;5.48;100.00
19890;BME280;10107;51.198;6.824;2023-01-30T17:41:26;-21465.03;;;5.50;100.00
19890;BME280;10107;51.198;6.824;2023-01-30T17:45:29;-21465.97;;;5.54;100.00
19890;BME280;10107;51.198;6.824;2023-01-30T17:49:31;-21465.84;;;5.53;100.00
19890;BME280;10107;51.198;6.824;2023-01-30T17:53:34;-21466.50;;;5.56;100.00
19890;BME280;10107;51.198;6.824;2023-01-30T17:57:36;-21466.91;;;5.58;100.00
19890;BME280;10107;51.198;6.824;2023-01-30T18:01:39;-21465.19;;;5.51;100.00
19890;BME280;10107;51.198;6.824;2023-01-30T18:05:40;-21462.09;;;5.39;100.00
19890;BME280;10107;51.198;6.824;2023-01-30T18:09:43;-21458.38;;;5.25;100.00
19890;BME280;10107;51.198;6.824;2023-01-30T18:13:45;-21454.75;;;5.11;100.00
19890;BME280;10107;51.198;6.824;2023-01-30T18:17:48;-21451.69;;;4.99;100.00
19890;BME280;10107;51.198;6.824;2023-01-30T18:21:50;-21449.81;;;4.92;100.00
19890;BME280;10107;51.198;6.824;2023-01-30T18:25:54;-21448.75;;;4.88;100.00
19890;BME280;10107;51.198;6.824;2023-01-30T18:29:55;-21446.22;;;4.78;100.00
19890;BME280;10107;51.198;6.824;2023-01-30T18:33:57;-21444.59;;;4.72;100.00
19890;BME280;10107;51.198;6.824;2023-01-30T18:37:59;-21446.22;;;4.78;100.00
19890;BME280;10107;51.198;6.824;2023-01-30T18:42:02;-21450.34;;;4.94;100.00
19890;BME280;10107;51.198;6.824;2023-01-30T18:46:06;-21452.91;;;5.04;100.00
19890;BME280;10107;51.198;6.824;2023-01-30T18:50:09;-21452.34;;;5.02;100.00
19890;BME280;10107;51.198;6.824;2023-01-30T18:54:11;-21450.09;;;4.93;100.00
19890;BME280;10107;51.198;6.824;2023-01-30T18:58:14;-21449.16;;;4.89;100.00
19890;BME280;10107;51.198;6.824;2023-01-30T19:02:15;-21449.41;;;4.90;100.00
19890;BME280;10107;51.198;6.824;2023-01-30T19:06:17;-21450.34;;;4.94;100.00
19890;BME280;10107;51.198;6.824;2023-01-30T19:10:19;-21450.34;;;4.94;100.00
19890;BME280;10107;51.198;6.824;2023-01-30T19:14:22;-21449.16;;;4.89;100.00
19890;BME280;10107;51.198;6.824;2023-01-30T19:18:25;-21448.47;;;4.87;100.00
19890;BME280;10107;51.198;6.824;2023-01-30T19:22:27;-21446.75;;;4.80;100.00
19890;BME280;10107;51.198;6.824;2023-01-30T19:26:29;-21445.28;;;4.74;100.00
19890;BME280;10107;51.198;6.824;2023-01-30T19:30:32;-21441.00;;;4.58;100.00
19890;BME280;10107;51.198;6.824;2023-01-30T19:34:35;-21437.38;;;4.44;100.00
19890;BME280;10107;51.198;6.824;2023-01-30T19:38:38;-21434.31;;;4.32;100.00
19890;BME280;10107;51.198;6.824;2023-01-30T19:42:40;-21430.69;;;4.19;100.00
19890;BME280;10107;51.198;6.824;2023-01-30T19:46:43;-21428.97;;;4.12;100.00
19890;BME280;10107;51.198;6.824;2023-01-30T19:50:45;-21427.38;;;4.06;100.00
19890;BME280;10107;51.198;6.824;2023-01-30T19:54:47;-21425.09;;;3.97;100.00
19890;BME280;10107;51.198;6.824;2023-01-30T19:58:48;-21424.00;;;3.93;100.00
19890;BME280;10107;51.198;6.824;2023-01-30T20:02:52;-21422.41;;;3.87;100.00
19890;BME280;10107;51.198;6.824;2023-01-30T20:06:54;-21421.06;;;3.82;100.00
19890;BME280;10107;51.198;6.824;2023-01-30T20:10:59;-21418.25;;;3.71;100.00
19890;BME280;10107;51.198;6.824;2023-01-30T20:15:01;-21417.06;;;3.66;100.00
19890;BME280;10107;51.198;6.824;2023-01-30T20:19:10;-21416.38;;;3.64;100.00
19890;BME280;10107;51.198;6.824;2023-01-30T20:23:12;-21416.38;;;3.64;100.00
19890;BME280;10107;51.198;6.824;2023-01-30T20:27:14;-21416.25;;;3.63;100.00
19890;BME280;10107;51.198;6.824;2023-01-30T20:31:18;-21416.91;;;3.66;100.00
19890;BME280;10107;51.198;6.824;2023-01-30T20:35:22;-21414.53;;;3.56;100.00
19890;BME280;10107;51.198;6.824;2023-01-30T20:39:23;-21413.03;;;3.51;100.00
19890;BME280;10107;51.198;6.824;2023-01-30T20:43:29;-21410.50;;;3.41;100.00
19890;BME280;10107;51.198;6.824;2023-01-30T20:47:31;-21409.84;;;3.39;100.00
19890;BME280;10107;51.198;6.824;2023-01-30T20:51:35;-21409.03;;;3.35;100.00
19890;BME280;10107;51.198;6.824;2023-01-30T20:55:37;-21408.09;;;3.32;100.00
19890;BME280;10107;51.198;6.824;2023-01-30T20:59:39;-21408.22;;;3.32;100.00
19890;BME280;10107;51.198;6.824;2023-01-30T21:03:42;-21407.03;;;3.28;100.00
19890;BME280;10107;51.198;6.824;2023-01-30T21:07:46;-21405.28;;;3.21;100.00
19890;BME280;10107;51.198;6.824;2023-01-30T21:11:48;-21403.28;;;3.13;100.00
19890;BME280;10107;51.198;6.824;2023-01-30T21:15:59;-21402.06;;;3.09;100.00
19890;BME280;10107;51.198;6.824;2023-01-30T21:20:00;-21398.97;;;2.97;100.00
19890;BME280;10107;51.198;6.824;2023-01-30T21:24:06;-21397.91;;;2.93;100.00
19890;BME280;10107;51.198;6.824;2023-01-30T21:28:09;-21398.31;;;2.94;100.00